Time;durP1;ratioP1;P1;durP2;ratioP2;P2;SDS_P1;SDS_P2;PMS_P1;PMS_P2;Temp;Humidity;BMP_temperature;BMP_pressure;BME280_temperature;BME280_humidity;BME280_pressure;Samples;Min_cycle;Max_cycle;Signal;HPM_P1;HPM_P2
2021/12/12 00:02:08;;;;;;;5.82;2.95;;;16.80;58.90;;;;;;5086776;28;20028;-80
2021/12/12 00:04:38;;;;;;;7.25;2.67;;;16.80;58.90;;;;;;5078764;28;20107;-79
2021/12/12 00:07:09;;;;;;;6.88;2.33;;;16.80;58.90;;;;;;5092435;28;20028;-79
2021/12/12 00:09:40;;;;;;;9.25;3.03;;;16.80;58.90;;;;;;5084057;28;20058;-79
2021/12/12 00:12:12;;;;;;;7.85;2.78;;;16.80;59.00;;;;;;5072252;28;20429;-80
2021/12/12 00:14:37;;;;;;;6.78;2.88;;;16.80;59.00;;;;;;5072302;28;20036;-79
2021/12/12 00:17:06;;;;;;;8.95;3.50;;;16.70;59.00;;;;;;5072051;28;20495;-79
2021/12/12 00:19:32;;;;;;;6.68;2.53;;;16.70;59.00;;;;;;5071760;28;20031;-80
2021/12/12 00:22:04;;;;;;;8.23;2.70;;;16.70;59.10;;;;;;5081677;28;20542;-80
2021/12/12 00:24:30;;;;;;;7.25;3.15;;;16.60;59.10;;;;;;5091971;28;20491;-79
2021/12/12 00:26:56;;;;;;;5.63;2.08;;;16.60;59.10;;;;;;5092139;28;20028;-80
2021/12/12 00:29:24;;;;;;;8.43;3.25;;;16.60;59.10;;;;;;5092057;28;20483;-80
2021/12/12 00:31:56;;;;;;;8.63;2.92;;;16.60;59.20;;;;;;5091998;28;20040;-80
2021/12/12 00:34:21;;;;;;;8.15;3.03;;;16.60;59.20;;;;;;5091840;28;20035;-80
2021/12/12 00:36:47;;;;;;;8.25;3.10;;;16.50;59.10;;;;;;5092073;28;20020;-80
2021/12/12 00:39:20;;;;;;;6.18;2.42;;;16.50;59.10;;;;;;5091808;28;20077;-80
2021/12/12 00:41:50;;;;;;;7.20;2.90;;;16.50;59.10;;;;;;5091826;28;20035;-80
2021/12/12 00:44:15;;;;;;;5.38;2.25;;;16.50;59.10;;;;;;5091500;28;20369;-81
2021/12/12 00:46:42;;;;;;;9.13;3.00;;;16.40;59.10;;;;;;5092005;28;20158;-81
2021/12/12 00:49:10;;;;;;;9.40;2.92;;;16.40;59.10;;;;;;5092071;28;20026;-80
2021/12/12 00:51:38;;;;;;;5.53;2.40;;;16.40;59.10;;;;;;5090950;28;20024;-81
2021/12/12 00:54:05;;;;;;;8.30;2.90;;;16.40;59.10;;;;;;5091783;28;20094;-81
2021/12/12 00:56:31;;;;;;;7.85;3.00;;;16.40;59.10;;;;;;5091206;28;20111;-80
2021/12/12 00:58:57;;;;;;;8.57;3.13;;;16.40;59.20;;;;;;5091510;28;20119;-81
2021/12/12 01:01:31;;;;;;;6.07;2.53;;;16.30;59.10;;;;;;5091034;28;20031;-81
2021/12/12 01:04:10;;;;;;;8.75;3.05;;;16.30;59.10;;;;;;5091572;28;20038;-81
2021/12/12 01:06:36;;;;;;;9.15;2.85;;;16.30;59.20;;;;;;5091008;28;20499;-81
2021/12/12 01:09:12;;;;;;;5.50;2.45;;;16.30;59.20;;;;;;5091814;28;20031;-81
2021/12/12 01:11:42;;;;;;;6.70;3.08;;;16.30;59.20;;;;;;5061630;28;20419;-80
2021/12/12 01:14:12;;;;;;;9.63;2.45;;;16.30;59.40;;;;;;5071516;28;20036;-81
2021/12/12 01:16:47;;;;;;;10.32;3.97;;;16.20;59.50;;;;;;5077812;28;20099;-81
2021/12/12 01:19:25;;;;;;;6.82;2.70;;;16.20;59.70;;;;;;5091221;28;20020;-81
2021/12/12 01:21:56;;;;;;;6.70;2.53;;;16.20;59.80;;;;;;5071246;28;20032;-81
2021/12/12 01:24:29;;;;;;;8.02;2.95;;;16.20;59.90;;;;;;5073829;28;20029;-82
2021/12/12 01:26:56;;;;;;;6.97;3.20;;;16.10;59.90;;;;;;5073154;28;20040;-81
2021/12/12 01:29:22;;;;;;;8.07;3.35;;;16.10;59.90;;;;;;5076386;28;20025;-81
2021/12/12 01:31:49;;;;;;;8.52;3.28;;;16.10;60.00;;;;;;5090061;28;20024;-81
2021/12/12 01:34:24;;;;;;;6.40;2.80;;;16.10;60.00;;;;;;5070516;28;20104;-80
2021/12/12 01:39:31;;;;;;;7.93;3.17;;;16.10;60.00;;;;;;5074387;28;20032;-81
2021/12/12 01:42:08;;;;;;;6.10;2.63;;;16.10;60.00;;;;;;5070914;28;20024;-81
2021/12/12 01:44:50;;;;;;;8.10;3.53;;;16.10;60.00;;;;;;5052750;28;20119;-81
2021/12/12 01:47:41;;;;;;;8.20;3.65;;;16.10;60.10;;;;;;5052449;28;20071;-80
2021/12/12 01:50:15;;;;;;;7.80;3.17;;;16.10;60.10;;;;;;5088441;28;20426;-81
2021/12/12 01:52:43;;;;;;;5.38;2.85;;;16.20;60.20;;;;;;5076633;28;20067;-81
2021/12/12 01:55:28;;;;;;;11.95;3.92;;;16.10;60.10;;;;;;5086860;28;20384;-80
2021/12/12 01:57:56;;;;;;;5.13;2.85;;;16.10;60.00;;;;;;5076973;28;20032;-80
2021/12/12 02:00:40;;;;;;;6.90;3.00;;;16.20;60.10;;;;;;5079699;28;20032;-81
2021/12/12 02:03:10;;;;;;;6.00;2.45;;;16.20;60.10;;;;;;5086772;28;20079;-81
2021/12/12 02:05:36;;;;;;;6.43;2.67;;;16.20;60.10;;;;;;5074295;28;20095;-81
2021/12/12 02:08:07;;;;;;;7.45;2.85;;;16.10;60.00;;;;;;5081900;28;20037;-81
2021/12/12 02:10:39;;;;;;;6.38;3.03;;;16.10;60.00;;;;;;5075013;28;20032;-80
2021/12/12 02:13:10;;;;;;;5.70;2.75;;;16.10;60.00;;;;;;5088622;28;20442;-81
2021/12/12 02:15:37;;;;;;;6.90;3.20;;;16.20;60.00;;;;;;5074200;28;20495;-81
2021/12/12 02:18:12;;;;;;;8.00;3.17;;;16.20;60.00;;;;;;5076154;28;20036;-80
2021/12/12 02:20:46;;;;;;;5.90;2.60;;;16.20;60.00;;;;;;5066547;28;20496;-81
2021/12/12 02:36:51;;;;;;;6.60;3.17;;;16.20;60.10;;;;;;5091992;28;20055;-80
2021/12/12 02:39:18;;;;;;;5.95;2.42;;;16.20;60.00;;;;;;5081185;28;20468;-80
2021/12/12 02:41:47;;;;;;;4.55;2.75;;;16.20;60.00;;;;;;5093719;28;20031;-81
2021/12/12 02:44:13;;;;;;;6.05;2.53;;;16.20;60.10;;;;;;5086062;28;20050;-80
2021/12/12 02:46:42;;;;;;;5.82;2.65;;;16.20;60.10;;;;;;5073890;28;20032;-80
2021/12/12 02:49:23;;;;;;;7.32;2.50;;;16.20;60.10;;;;;;5074134;28;20105;-80
2021/12/12 02:51:50;;;;;;;5.07;2.45;;;16.20;60.10;;;;;;5081757;28;20035;-81
2021/12/12 02:54:16;;;;;;;5.82;3.13;;;16.20;60.10;;;;;;5078970;28;20041;-80
2021/12/12 02:56:45;;;;;;;6.18;2.50;;;16.30;60.20;;;;;;5088209;28;20029;-80
2021/12/12 02:59:17;;;;;;;5.28;2.72;;;16.20;60.10;;;;;;5092610;28;20107;-80
2021/12/12 03:01:53;;;;;;;6.30;2.75;;;16.20;60.10;;;;;;5083977;28;20028;-80
2021/12/12 03:04:19;;;;;;;5.53;2.75;;;16.30;60.20;;;;;;5073449;28;20024;-80
2021/12/12 03:06:45;;;;;;;3.72;2.40;;;16.30;60.20;;;;;;5073356;28;20412;-80
2021/12/12 03:09:24;;;;;;;5.75;2.40;;;16.30;60.20;;;;;;5087189;28;20032;-80
2021/12/12 03:11:55;;;;;;;4.90;2.33;;;16.30;60.10;;;;;;5087140;28;20035;-80
2021/12/12 03:14:21;;;;;;;6.15;2.10;;;16.30;60.20;;;;;;5088990;28;20040;-80
2021/12/12 03:16:48;;;;;;;5.32;2.28;;;16.30;60.20;;;;;;5093142;28;20493;-80
2021/12/12 03:19:19;;;;;;;4.78;2.30;;;16.30;60.20;;;;;;5093443;28;20111;-80
2021/12/12 03:21:46;;;;;;;6.47;2.72;;;16.30;60.20;;;;;;5085430;28;20029;-80
2021/12/12 03:24:19;;;;;;;4.05;1.83;;;16.30;60.20;;;;;;5077339;28;20481;-80
2021/12/12 03:26:47;;;;;;;5.00;2.28;;;16.40;60.20;;;;;;5087925;28;20020;-80
2021/12/12 03:29:13;;;;;;;4.60;2.30;;;16.40;60.20;;;;;;5093065;28;20036;-80
2021/12/12 03:31:50;;;;;;;4.22;2.55;;;16.40;60.10;;;;;;5086264;28;20021;-80
2021/12/12 03:34:19;;;;;;;5.32;2.10;;;16.40;60.20;;;;;;5075579;28;20538;-80
2021/12/12 03:36:46;;;;;;;5.05;1.83;;;16.40;60.10;;;;;;5076806;28;20111;-80
2021/12/12 03:39:18;;;;;;;4.05;2.10;;;16.40;60.10;;;;;;5085924;28;20032;-80
2021/12/12 03:41:44;;;;;;;5.70;2.40;;;16.40;60.20;;;;;;5081238;28;20116;-80
2021/12/12 03:44:17;;;;;;;2.88;1.80;;;16.40;60.30;;;;;;5073070;28;20481;-80
2021/12/12 03:46:44;;;;;;;4.20;2.03;;;16.40;60.30;;;;;;5072563;28;20503;-80
2021/12/12 03:49:10;;;;;;;5.13;2.30;;;16.40;60.30;;;;;;5072952;28;20219;-80
2021/12/12 03:51:38;;;;;;;4.93;2.17;;;16.40;60.30;;;;;;5078719;28;20095;-80
2021/12/12 03:54:05;;;;;;;5.32;1.92;;;16.40;60.30;;;;;;5080201;28;20089;-81
2021/12/12 03:56:31;;;;;;;3.50;1.92;;;16.40;60.20;;;;;;5085334;28;20027;-80
2021/12/12 03:58:57;;;;;;;4.40;2.20;;;16.40;60.20;;;;;;5092215;28;20070;-81
2021/12/12 04:01:40;;;;;;;4.75;2.20;;;16.40;60.20;;;;;;5082301;28;20081;-80
2021/12/12 04:04:15;;;;;;;4.88;1.83;;;16.40;60.30;;;;;;5072173;28;20392;-81
2021/12/12 04:06:41;;;;;;;3.83;2.00;;;16.50;60.40;;;;;;5085331;28;20062;-80
2021/12/12 04:09:10;;;;;;;4.22;1.83;;;16.50;60.30;;;;;;5088676;28;20467;-81
2021/12/12 04:11:42;;;;;;;3.90;1.58;;;16.50;60.30;;;;;;5081451;28;20029;-80
2021/12/12 04:14:09;;;;;;;2.55;1.70;;;16.50;60.30;;;;;;5092477;28;20054;-80
2021/12/12 04:16:39;;;;;;;5.47;2.03;;;16.50;60.30;;;;;;5067370;28;20445;-79
2021/12/12 04:19:06;;;;;;;2.47;1.50;;;16.50;60.20;;;;;;5054317;28;20032;-79
2021/12/12 04:21:33;;;;;;;3.53;1.95;;;16.50;60.30;;;;;;5077573;28;20483;-81
2021/12/12 04:23:59;;;;;;;4.20;1.98;;;16.50;60.30;;;;;;5080787;28;20477;-80
2021/12/12 04:26:32;;;;;;;2.65;1.35;;;16.50;60.30;;;;;;5085281;28;20065;-80
2021/12/12 04:29:04;;;;;;;3.95;2.03;;;16.50;60.20;;;;;;5092268;28;20043;-80
2021/12/12 04:31:30;;;;;;;3.60;1.73;;;16.50;60.20;;;;;;5078637;28;20484;-79
2021/12/12 04:33:57;;;;;;;3.50;1.92;;;16.50;60.30;;;;;;5071582;28;20104;-80
2021/12/12 04:36:28;;;;;;;3.13;1.50;;;16.50;60.20;;;;;;5057895;28;20020;-80
2021/12/12 04:39:10;;;;;;;3.15;1.75;;;16.60;60.20;;;;;;5087456;28;20039;-80
2021/12/12 04:41:36;;;;;;;4.70;2.08;;;16.60;60.30;;;;;;5062860;28;20024;-80
2021/12/12 04:44:04;;;;;;;4.97;1.90;;;16.60;60.30;;;;;;5091898;28;20027;-81
2021/12/12 04:49:54;;;;;;;3.72;2.00;;;16.60;60.30;;;;;;5089389;28;20070;-80
2021/12/12 04:52:18;;;;;;;3.40;1.80;;;16.60;60.40;;;;;;5091029;28;20031;-80
2021/12/12 04:55:01;;;;;;;4.70;1.90;;;16.60;60.40;;;;;;5073834;28;20502;-80
2021/12/12 04:57:35;;;;;;;3.65;2.05;;;16.60;60.40;;;;;;5082867;28;20028;-80
2021/12/12 05:00:11;;;;;;;3.47;2.15;;;16.60;60.50;;;;;;5072761;28;20036;-80
2021/12/12 05:02:55;;;;;;;;;;;16.60;60.50;;;;;;5072809;28;20547;-80
2021/12/12 05:05:30;;;;;;;4.82;2.10;;;16.60;60.50;;;;;;5072422;28;19931;-80
2021/12/12 05:08:07;;;;;;;3.30;1.63;;;16.60;60.50;;;;;;5065529;28;20420;-80
2021/12/12 05:10:57;;;;;;;2.92;1.65;;;16.60;60.50;;;;;;5090685;28;20035;-80
2021/12/12 05:13:33;;;;;;;3.65;1.90;;;16.60;60.50;;;;;;5071096;28;20107;-80
2021/12/12 05:16:20;;;;;;;3.13;1.98;;;16.60;60.50;;;;;;5071586;28;20029;-80
2021/12/12 05:18:52;;;;;;;3.15;1.83;;;16.60;60.50;;;;;;5070621;28;20102;-80
2021/12/12 05:21:24;;;;;;;3.33;1.80;;;16.60;60.60;;;;;;5062261;28;20020;-80
2021/12/12 05:23:52;;;;;;;4.03;2.33;;;16.60;60.50;;;;;;5081781;28;20396;-80
2021/12/12 05:26:27;;;;;;;4.65;2.10;;;16.70;60.60;;;;;;5076553;28;20506;-79
2021/12/12 05:29:07;;;;;;;3.03;1.88;;;16.70;60.60;;;;;;5071156;28;20040;-80
2021/12/12 05:31:34;;;;;;;4.03;1.90;;;16.70;60.60;;;;;;5078403;28;20028;-79
2021/12/12 05:34:00;;;;;;;3.35;1.80;;;16.70;60.60;;;;;;5091342;28;20090;-79
2021/12/12 05:36:28;;;;;;;3.75;1.60;;;16.70;60.60;;;;;;5090992;28;20085;-79
2021/12/12 05:38:57;;;;;;;4.38;2.33;;;16.70;60.60;;;;;;5075453;28;20479;-80
2021/12/12 05:41:24;;;;;;;4.18;1.88;;;16.70;60.60;;;;;;5089980;28;20009;-79
2021/12/12 05:43:53;;;;;;;2.97;1.88;;;16.70;60.70;;;;;;5092139;28;20383;-79
2021/12/12 05:46:20;;;;;;;3.60;1.88;;;16.70;60.60;;;;;;5076345;28;20020;-80
2021/12/12 05:48:49;;;;;;;3.22;2.05;;;16.70;60.60;;;;;;5066769;28;20041;-80
2021/12/12 05:51:16;;;;;;;3.78;2.47;;;16.70;60.60;;;;;;5094747;28;20020;-80
2021/12/12 05:53:42;;;;;;;3.20;1.65;;;16.70;60.60;;;;;;5086889;28;20028;-80
2021/12/12 05:56:09;;;;;;;3.35;1.92;;;16.70;60.60;;;;;;5076258;28;20019;-81
2021/12/12 05:58:35;;;;;;;3.83;2.08;;;16.60;60.60;;;;;;5069274;28;20398;-80
2021/12/12 06:01:06;;;;;;;3.75;2.20;;;16.70;60.80;;;;;;5093155;28;20039;-79
2021/12/12 06:03:38;;;;;;;3.58;2.00;;;16.70;60.70;;;;;;5094902;28;20043;-79
2021/12/12 06:06:08;;;;;;;3.42;2.08;;;16.70;60.80;;;;;;5093837;28;20036;-79
2021/12/12 06:08:35;;;;;;;4.45;1.70;;;16.70;60.90;;;;;;5079350;28;20377;-80
2021/12/12 06:11:02;;;;;;;3.90;2.00;;;16.70;60.90;;;;;;5075817;28;20028;-80
2021/12/12 06:13:30;;;;;;;3.42;1.92;;;16.70;60.90;;;;;;5093785;28;20115;-79
2021/12/12 06:15:56;;;;;;;5.15;2.22;;;16.70;61.00;;;;;;5093632;28;20016;-79
2021/12/12 06:18:25;;;;;;;4.97;2.22;;;16.70;61.00;;;;;;5074260;28;20064;-80
2021/12/12 06:20:52;;;;;;;3.88;2.22;;;16.70;61.00;;;;;;5074761;28;20020;-80
2021/12/12 06:23:19;;;;;;;4.63;2.40;;;16.70;61.00;;;;;;5078380;28;20103;-79
2021/12/12 06:25:46;;;;;;;4.22;2.42;;;16.70;61.00;;;;;;5090052;28;20074;-79
2021/12/12 06:28:16;;;;;;;3.78;1.90;;;16.70;61.00;;;;;;5075100;28;20040;-79
2021/12/12 06:30:43;;;;;;;3.65;1.85;;;16.70;61.00;;;;;;5074132;28;20039;-80
2021/12/12 06:33:10;;;;;;;3.80;2.10;;;16.70;61.10;;;;;;5074168;28;20392;-79
2021/12/12 06:35:36;;;;;;;3.78;2.05;;;16.70;61.10;;;;;;5055902;28;20020;-79
2021/12/12 06:38:05;;;;;;;2.80;2.08;;;16.70;61.10;;;;;;5077054;28;20068;-79
2021/12/12 06:40:32;;;;;;;4.22;2.13;;;16.70;61.10;;;;;;5093861;28;20027;-79
2021/12/12 06:43:06;;;;;;;3.70;2.03;;;16.70;61.20;;;;;;5091555;28;20499;-79
2021/12/12 06:45:33;;;;;;;2.88;1.73;;;16.70;61.10;;;;;;5075782;28;20403;-79
2021/12/12 06:47:59;;;;;;;3.40;1.50;;;16.70;61.10;;;;;;5074503;28;20123;-79
2021/12/12 06:50:27;;;;;;;3.67;2.05;;;16.70;61.10;;;;;;5087922;28;20024;-78
2021/12/12 06:52:54;;;;;;;2.85;1.83;;;16.70;61.10;;;;;;5093659;28;20495;-78
2021/12/12 06:55:21;;;;;;;4.32;2.13;;;16.70;61.10;;;;;;5093663;28;20492;-78
2021/12/12 06:57:48;;;;;;;6.60;2.33;;;16.70;61.10;;;;;;5093498;28;20024;-78
2021/12/12 07:00:18;;;;;;;3.30;2.00;;;16.70;61.20;;;;;;5073146;28;20500;-79
2021/12/12 07:02:45;;;;;;;5.93;2.28;;;16.70;61.30;;;;;;5084482;28;20024;-78
2021/12/12 07:05:13;;;;;;;4.40;2.25;;;16.70;61.30;;;;;;5094121;28;20028;-79
2021/12/12 07:07:39;;;;;;;4.47;2.35;;;16.70;61.30;;;;;;5093934;28;20435;-78
2021/12/12 07:10:07;;;;;;;4.53;2.33;;;16.70;61.30;;;;;;5093140;28;20107;-79
2021/12/12 07:12:34;;;;;;;3.75;1.65;;;16.70;61.30;;;;;;5064145;28;20111;-79
2021/12/12 07:15:00;;;;;;;5.82;1.90;;;16.70;61.30;;;;;;5082014;28;20089;-78
2021/12/12 07:17:26;;;;;;;3.83;2.28;;;16.70;61.20;;;;;;5083202;28;20095;-81
2021/12/12 07:19:53;;;;;;;3.85;1.88;;;16.70;61.30;;;;;;5087941;28;20036;-78
2021/12/12 07:22:19;;;;;;;3.58;2.10;;;16.80;61.40;;;;;;5082441;28;20015;-77
2021/12/12 07:24:45;;;;;;;3.70;2.00;;;16.70;61.30;;;;;;5074022;28;20106;-79
2021/12/12 07:27:15;;;;;;;4.28;2.20;;;16.80;61.60;;;;;;5073332;28;20488;-79
2021/12/12 07:29:41;;;;;;;4.63;2.53;;;16.70;61.20;;;;;;5073404;28;20024;-79
2021/12/12 07:32:09;;;;;;;3.78;2.00;;;16.80;61.40;;;;;;5073014;28;20073;-79
2021/12/12 07:34:35;;;;;;;5.65;2.33;;;16.80;61.50;;;;;;5072669;28;20485;-79
2021/12/12 07:37:05;;;;;;;4.00;2.20;;;16.80;61.60;;;;;;5072914;28;20017;-79
2021/12/12 07:39:32;;;;;;;5.95;2.20;;;16.70;61.40;;;;;;5086386;28;20036;-78
2021/12/12 07:42:00;;;;;;;3.78;2.17;;;16.80;61.60;;;;;;5092070;28;20365;-78
2021/12/12 07:44:29;;;;;;;4.38;2.08;;;16.80;61.70;;;;;;5077077;28;20028;-78
2021/12/12 07:46:57;;;;;;;3.80;2.22;;;16.80;61.80;;;;;;5072610;28;20031;-79
2021/12/12 07:49:32;;;;;;;6.22;2.53;;;16.80;61.90;;;;;;5082116;28;20390;-78
2021/12/12 07:51:58;;;;;;;3.63;2.00;;;16.90;62.10;;;;;;5064865;28;20021;-75
2021/12/12 07:54:26;;;;;;;6.95;2.75;;;16.90;62.30;;;;;;5083191;28;20031;-77
2021/12/12 07:56:52;;;;;;;4.68;2.55;;;16.90;62.30;;;;;;5080161;28;20024;-77
2021/12/12 07:59:19;;;;;;;5.63;2.45;;;16.90;62.20;;;;;;5071584;28;20416;-77
2021/12/12 08:01:49;;;;;;;4.50;2.15;;;16.90;62.40;;;;;;5079464;28;20028;-77
2021/12/12 08:04:16;;;;;;;4.28;2.28;;;16.90;62.50;;;;;;5083348;28;20052;-78
2021/12/12 08:06:43;;;;;;;7.03;2.55;;;16.90;62.70;;;;;;5090758;28;20438;-77
2021/12/12 08:09:09;;;;;;;5.63;2.78;;;17.00;62.90;;;;;;5081042;28;20117;-78
2021/12/12 08:11:36;;;;;;;8.45;3.22;;;16.90;63.00;;;;;;5083950;28;20085;-78
2021/12/12 08:14:08;;;;;;;6.32;3.13;;;17.00;63.20;;;;;;5074362;28;20504;-78
2021/12/12 08:16:34;;;;;;;6.95;3.20;;;17.00;63.40;;;;;;5090188;28;20073;-77
2021/12/12 08:19:00;;;;;;;9.10;4.20;;;17.00;63.90;;;;;;5086912;28;20468;-77
2021/12/12 08:21:27;;;;;;;7.28;3.45;;;17.00;64.00;;;;;;5075044;28;20496;-77
2021/12/12 08:23:55;;;;;;;6.03;3.72;;;17.00;64.10;;;;;;5075052;28;20055;-78
2021/12/12 08:26:22;;;;;;;7.57;3.92;;;17.00;64.20;;;;;;5092032;28;20026;-78
2021/12/12 08:28:48;;;;;;;7.68;3.10;;;17.10;64.30;;;;;;5092086;28;20070;-79
2021/12/12 08:31:16;;;;;;;10.32;3.92;;;17.10;64.50;;;;;;5091975;28;20413;-78
2021/12/12 08:33:42;;;;;;;11.32;3.85;;;17.10;64.30;;;;;;5074087;28;20028;-78
2021/12/12 08:36:09;;;;;;;7.00;3.72;;;17.10;64.20;;;;;;5093096;28;20012;-77
2021/12/12 08:38:35;;;;;;;9.02;4.00;;;17.10;64.60;;;;;;5071486;28;20032;-79
2021/12/12 08:41:03;;;;;;;12.90;4.07;;;17.20;64.40;;;;;;5076078;28;20035;-80
2021/12/12 08:43:29;;;;;;;10.00;4.38;;;17.20;64.70;;;;;;5091490;28;20020;-78
2021/12/12 08:46:01;;;;;;;13.38;4.38;;;17.20;64.80;;;;;;5091924;28;20035;-79
2021/12/12 08:48:31;;;;;;;19.20;4.00;;;17.20;65.00;;;;;;5091602;28;20036;-81
2021/12/12 08:51:04;;;;;;;10.82;4.60;;;17.30;65.20;;;;;;5053338;28;20046;-80
2021/12/12 08:53:30;;;;;;;7.28;3.88;;;17.30;65.50;;;;;;5089884;28;20024;-80
2021/12/12 08:55:58;;;;;;;10.40;4.20;;;17.30;65.30;;;;;;5091038;28;20130;-80
2021/12/12 08:58:27;;;;;;;10.60;3.10;;;17.40;65.30;;;;;;5087205;28;20019;-77
2021/12/12 09:01:06;;;;;;;9.07;4.13;;;17.40;65.40;;;;;;5084607;28;20103;-80
2021/12/12 09:03:58;;;;;;;13.30;5.25;;;17.30;64.60;;;;;;5072362;28;20064;-81
2021/12/12 09:06:31;;;;;;;12.40;4.32;;;17.40;65.70;;;;;;5089897;28;20032;-81
2021/12/12 09:09:10;;;;;;;10.38;4.20;;;17.40;65.80;;;;;;5085480;28;20032;-81
2021/12/12 09:11:58;;;;;;;14.93;4.15;;;17.40;66.30;;;;;;5083488;28;20531;-82
2021/12/12 09:14:32;;;;;;;9.40;3.05;;;17.40;65.90;;;;;;5084463;28;20099;-79
2021/12/12 09:17:07;;;;;;;8.45;3.92;;;17.40;66.10;;;;;;5057623;28;20020;-80
2021/12/12 09:19:40;;;;;;;11.20;3.75;;;17.40;66.00;;;;;;5075859;28;20380;-79
2021/12/12 09:22:37;;;;;;;10.88;3.42;;;17.50;66.00;;;;;;5078917;28;20028;-80
2021/12/12 09:25:19;;;;;;;7.93;3.33;;;17.60;65.90;;;;;;5086768;28;20024;-80
2021/12/12 09:27:53;;;;;;;6.70;3.28;;;17.60;65.60;;;;;;5091277;28;20039;-82
2021/12/12 09:30:24;;;;;;;7.13;3.08;;;17.70;65.20;;;;;;5078166;28;20032;-82
2021/12/12 09:32:53;;;;;;;7.40;3.83;;;17.80;64.90;;;;;;5080089;28;20099;-81
2021/12/12 09:35:24;;;;;;;7.65;3.38;;;17.80;64.80;;;;;;5077995;28;20027;-80
2021/12/12 09:38:05;;;;;;;6.45;3.00;;;17.80;64.80;;;;;;5061719;28;20027;-81
2021/12/12 09:40:39;;;;;;;7.38;3.13;;;17.90;64.60;;;;;;5079591;28;20527;-82
2021/12/12 09:43:17;;;;;;;9.18;2.97;;;17.90;64.30;;;;;;5091139;28;20103;-81
2021/12/12 09:46:19;;;;;;;8.95;4.15;;;18.00;64.40;;;;;;5084053;28;20025;-80
2021/12/12 09:52:11;;;;;;;5.38;2.97;;;18.10;64.30;;;;;;5082525;28;20032;-81
2021/12/12 09:54:54;;;;;;;12.30;3.53;;;18.10;64.20;;;;;;5084056;28;20455;-80
2021/12/12 09:57:26;;;;;;;9.30;3.38;;;18.20;64.20;;;;;;5075176;28;20012;-80
2021/12/12 10:00:10;;;;;;;10.35;3.53;;;18.20;63.80;;;;;;5091224;28;20133;-79
2021/12/12 10:02:53;;;;;;;7.75;2.70;;;18.30;65.30;;;;;;5090553;28;20189;-79
2021/12/12 10:05:44;;;;;;;9.30;3.42;;;18.40;64.10;;;;;;5090815;28;20027;-82
2021/12/12 10:08:21;;;;;;;8.15;2.88;;;18.40;63.90;;;;;;5072513;28;20044;-80
2021/12/12 10:11:16;;;;;;;15.80;7.95;;;18.50;64.10;;;;;;5052689;28;20094;-80
2021/12/12 10:13:47;;;;;;;16.10;5.90;;;18.50;64.00;;;;;;5071034;28;20028;-81
2021/12/12 10:16:34;;;;;;;18.92;5.93;;;18.50;64.10;;;;;;5070557;28;20258;-81
2021/12/12 10:19:32;;;;;;;21.25;5.43;;;18.50;64.10;;;;;;5070564;28;20388;-80
2021/12/12 10:22:15;;;;;;;20.15;9.05;;;18.60;64.00;;;;;;5030448;28;20064;-80
2021/12/12 10:24:59;;;;;;;15.18;6.22;;;18.70;64.20;;;;;;5074881;28;20033;-81
2021/12/12 10:27:51;;;;;;;16.58;5.40;;;18.70;64.10;;;;;;5073923;28;20507;-81
2021/12/12 10:30:32;;;;;;;9.65;4.22;;;18.80;63.80;;;;;;5074070;28;20017;-81
2021/12/12 10:33:15;;;;;;;12.70;4.07;;;18.80;63.80;;;;;;5077422;28;20028;-81
2021/12/12 10:35:45;;;;;;;10.98;4.53;;;18.80;64.00;;;;;;5085125;28;20094;-80
2021/12/12 10:38:38;;;;;;;10.60;4.55;;;18.80;64.10;;;;;;5094122;28;20123;-81
2021/12/12 10:41:14;;;;;;;8.27;4.05;;;18.80;64.00;;;;;;5065765;28;20039;-80
2021/12/12 10:43:45;;;;;;;8.38;3.78;;;18.80;64.10;;;;;;5074523;28;20025;-80
2021/12/12 10:46:21;;;;;;;5.78;3.30;;;18.80;64.10;;;;;;5056143;28;20035;-80
2021/12/12 10:49:09;;;;;;;8.00;3.28;;;18.80;64.00;;;;;;5073814;28;20388;-80
2021/12/12 10:51:43;;;;;;;7.72;3.28;;;18.90;63.90;;;;;;5073553;28;20013;-79
2021/12/12 10:54:13;;;;;;;6.80;3.10;;;18.90;63.80;;;;;;5074131;28;20048;-80
2021/12/12 10:56:50;;;;;;;7.78;3.08;;;18.90;63.70;;;;;;5074036;28;20028;-79
2021/12/12 10:59:24;;;;;;;8.75;2.22;;;18.90;63.70;;;;;;5073352;28;20485;-80
2021/12/12 11:01:58;;;;;;;4.97;2.83;;;18.90;63.60;;;;;;5073734;28;20020;-80
2021/12/12 11:04:39;;;;;;;4.88;2.70;;;19.00;63.60;;;;;;5073472;28;20098;-80
2021/12/12 11:07:12;;;;;;;5.75;2.50;;;19.00;63.50;;;;;;5073458;28;20095;-80
2021/12/12 11:09:43;;;;;;;7.32;2.45;;;19.00;63.40;;;;;;5088139;28;20028;-81
2021/12/12 11:12:24;;;;;;;8.85;2.65;;;19.00;63.50;;;;;;5094060;28;20468;-85
2021/12/12 11:15:19;;;;;;;3.67;2.30;;;19.00;63.50;;;;;;5093887;28;20388;-79
2021/12/12 11:18:07;;;;;;;4.78;2.38;;;19.00;63.60;;;;;;5075456;28;20028;-82
2021/12/12 11:20:38;;;;;;;7.30;2.47;;;19.10;63.40;;;;;;5061116;28;20043;-76
2021/12/12 11:23:26;;;;;;;5.97;2.65;;;19.10;63.00;;;;;;5080585;28;20051;-77
2021/12/12 11:26:07;;;;;;;9.00;2.95;;;19.10;63.30;;;;;;5093442;28;20017;-77
2021/12/12 11:29:05;;;;;;;6.00;2.35;;;19.20;63.40;;;;;;5063734;28;20070;-78
2021/12/12 11:31:42;;;;;;;5.93;2.58;;;19.20;63.50;;;;;;5036033;28;20036;-78
2021/12/12 11:34:09;;;;;;;8.57;2.45;;;19.20;63.50;;;;;;5076492;28;20028;-78
2021/12/12 11:36:54;;;;;;;3.28;1.73;;;19.20;63.70;;;;;;5092926;28;20399;-78
2021/12/12 11:39:38;;;;;;;3.92;2.42;;;19.20;63.50;;;;;;5089616;28;20024;-78
2021/12/12 11:42:11;;;;;;;5.32;2.00;;;19.20;63.90;;;;;;5081962;28;20024;-78
2021/12/12 11:44:47;;;;;;;3.15;2.00;;;19.20;63.40;;;;;;5061844;28;20485;-78
2021/12/12 11:47:24;;;;;;;4.68;1.95;;;19.30;63.60;;;;;;5090362;28;20546;-77
2021/12/12 11:50:08;;;;;;;3.70;1.92;;;19.30;63.80;;;;;;5065423;28;20020;-78
2021/12/12 11:52:50;;;;;;;3.40;1.77;;;19.30;63.80;;;;;;5092763;28;20606;-78
2021/12/12 11:55:24;;;;;;;5.47;1.95;;;19.30;63.80;;;;;;5089309;28;20032;-77
2021/12/12 11:58:28;;;;;;;2.90;1.73;;;19.30;63.70;;;;;;5079209;28;20446;-78
2021/12/12 12:01:18;;;;;;;3.85;1.70;;;19.30;63.80;;;;;;5080438;28;20056;-76
2021/12/12 12:04:01;;;;;;;3.35;1.55;;;19.30;63.70;;;;;;5089381;28;20024;-81
2021/12/12 12:06:36;;;;;;;4.03;1.63;;;19.40;63.70;;;;;;5060397;28;20056;-79
2021/12/12 12:09:49;;;;;;;3.33;1.70;;;19.40;64.10;;;;;;5089074;28;20043;-77
2021/12/12 12:13:10;;;;;;;3.95;1.88;;;19.40;64.10;;;;;;5078858;28;20051;-76
2021/12/12 12:15:49;;;;;;;3.92;2.03;;;19.40;64.00;;;;;;5005497;28;20450;-78
2021/12/12 12:19:00;;;;;;;5.28;1.75;;;19.40;64.20;;;;;;5092799;28;20023;-76
2021/12/12 12:22:04;;;;;;;6.30;1.40;;;19.40;64.10;;;;;;5003012;28;20046;-75
2021/12/12 12:24:54;;;;;;;6.10;1.60;;;19.40;64.30;;;;;;5093581;28;20020;-77
2021/12/12 12:27:51;;;;;;;4.20;1.90;;;19.40;64.60;;;;;;5087691;28;20028;-76
2021/12/12 12:30:31;;;;;;;;;;;19.40;64.30;;;;;;5081487;28;20464;-75
2021/12/12 12:33:12;;;;;;;5.82;1.50;;;19.30;64.50;;;;;;5081955;28;19911;-76
2021/12/12 12:36:05;;;;;;;4.60;2.22;;;19.30;64.70;;;;;;5082273;28;20039;-75
2021/12/12 12:38:49;;;;;;;4.15;1.63;;;19.20;64.70;;;;;;5078417;28;20028;-75
2021/12/12 12:41:33;;;;;;;4.55;1.90;;;19.20;65.00;;;;;;5079432;28;20032;-75
2021/12/12 12:44:36;;;;;;;3.40;1.70;;;19.10;65.10;;;;;;5080649;28;20035;-76
2021/12/12 12:47:36;;;;;;;2.65;1.65;;;19.10;64.80;;;;;;5081268;28;20036;-76
2021/12/12 12:50:20;;;;;;;3.58;1.67;;;19.10;64.90;;;;;;5081783;28;20029;-76
2021/12/12 12:53:30;;;;;;;3.40;1.88;;;19.10;65.10;;;;;;5081066;28;20102;-75
2021/12/12 12:56:09;;;;;;;5.88;2.10;;;19.00;65.40;;;;;;5061556;28;20125;-75
2021/12/12 12:58:52;;;;;;;3.75;1.70;;;19.00;65.40;;;;;;5091470;28;20044;-77
2021/12/12 13:01:25;;;;;;;4.28;2.30;;;19.00;65.60;;;;;;5067377;28;20041;-79
2021/12/12 13:04:29;;;;;;;4.18;1.95;;;19.00;65.80;;;;;;5083546;28;20028;-77
2021/12/12 13:07:22;;;;;;;3.85;1.92;;;19.00;66.30;;;;;;5091586;28;20052;-85
2021/12/12 13:10:07;;;;;;;3.97;1.90;;;19.00;66.20;;;;;;5072827;28;20025;-88
2021/12/12 13:13:10;;;;;;;4.10;1.70;;;19.10;65.70;;;;;;5072968;28;20107;-89
2021/12/12 13:16:00;;;;;;;6.82;2.35;;;19.00;65.50;;;;;;5053997;28;20435;-87
2021/12/12 13:18:32;;;;;;;7.32;1.88;;;19.10;65.80;;;;;;5059340;28;20016;-85
2021/12/12 13:21:31;;;;;;;4.15;2.00;;;19.10;65.80;;;;;;5053407;28;20028;-86
2021/12/12 13:24:00;;;;;;;5.57;1.92;;;19.00;66.00;;;;;;5061994;28;20035;-86
2021/12/12 13:26:34;;;;;;;6.85;1.88;;;19.10;67.20;;;;;;5079339;28;20024;-87
2021/12/12 13:29:20;;;;;;;6.20;2.13;;;19.00;66.00;;;;;;5057677;28;20028;-89
2021/12/12 13:32:25;;;;;;;3.85;1.67;;;19.00;66.10;;;;;;5061671;28;20029;-89
2021/12/12 13:35:01;;;;;;;7.63;1.98;;;19.00;66.70;;;;;;5074708;28;20516;-85
2021/12/12 13:37:35;;;;;;;5.00;2.08;;;19.00;66.40;;;;;;5089583;28;20083;-86
2021/12/12 13:40:27;;;;;;;4.28;1.70;;;19.00;66.80;;;;;;5091658;28;20020;-85
2021/12/12 13:43:11;;;;;;;3.65;1.60;;;19.00;67.10;;;;;;5046122;28;20036;-87
2021/12/12 13:45:40;;;;;;;4.75;1.65;;;19.00;67.60;;;;;;5087611;28;20068;-86